Weather reports worldwide

Advertisment
Weeze/Niederrhein, Germany (10405): temperature & dewpoint: 07.12.2018 10:00:00 - 13.12.2018 10:00:00 (CET)Weeze/Niederrhein, Germany (10405): wind speed: 07.12.2018 10:00:00 - 13.12.2018 10:00:00 (CET)Weeze/Niederrhein, Germany (10405): wind direction: 07.12.2018 10:00:00 - 13.12.2018 10:00:00 (CET)Weeze/Niederrhein, Germany (10405): visibility: 07.12.2018 10:00:00 - 13.12.2018 10:00:00 (CET)
Date & Time tt [°C] td [°C] ff [km/h] ff [kn] dd vv [km]
13.12.2018 10:00:00 1,0 -1,0 11 6 ENE 10
13.12.2018 09:00:00 0,0 -1,0 9 5 ENE 9
13.12.2018 08:00:00 1,0 0,0 13 7 ENE 7
13.12.2018 07:00:00 1,0 0,0 13 7 ENE 7
13.12.2018 06:00:00 1,0 0,0 9 5 ENE 8
13.12.2018 05:00:00 2,0 0,0 8 4 ENE 10
13.12.2018 04:00:00 - - - - - -
13.12.2018 03:00:00 - - - - - -
13.12.2018 02:00:00 - - - - - -
13.12.2018 01:00:00 - - - - - -
13.12.2018 00:00:00 2,0 1,0 5 3 - 10
12.12.2018 23:00:00 1,0 0,0 8 4 ENE 10
12.12.2018 22:00:00 1,0 0,0 5 3 - 10
12.12.2018 21:00:00 1,0 0,0 4 2 - 10
12.12.2018 20:00:00 1,0 1,0 4 2 - 10
12.12.2018 19:00:00 2,0 1,0 4 2 - 10
12.12.2018 18:00:00 3,0 1,0 4 2 NE 10
12.12.2018 17:00:00 4,0 1,0 5 3 - 10
12.12.2018 16:00:00 4,0 1,0 5 3 - 10
12.12.2018 15:00:00 4,0 2,0 4 2 - 10
12.12.2018 14:00:00 4,0 2,0 5 3 - 10
12.12.2018 13:00:00 4,0 2,0 5 3 - 10
12.12.2018 12:00:00 4,0 2,0 5 3 - 10
12.12.2018 11:00:00 3,0 2,0 - - - 3,4
12.12.2018 10:00:00 2,0 1,0 0 0 N 2,2
12.12.2018 09:00:00 1,0 1,0 4 2 NNE 2,5
12.12.2018 08:00:00 1,0 1,0 0 0 N 4,9
12.12.2018 07:00:00 2,0 2,0 5 3 - 6
12.12.2018 06:00:00 0,0 0,0 4 2 - 6
12.12.2018 05:00:00 0,0 0,0 0 0 N 6
12.12.2018 04:00:00 - - - - - -
12.12.2018 03:00:00 - - - - - -
12.12.2018 02:00:00 - - - - - -
12.12.2018 01:00:00 - - - - - -
12.12.2018 00:00:00 2,0 2,0 4 2 WSW 4,8
11.12.2018 23:00:00 3,0 2,0 4 2 - 10
11.12.2018 22:00:00 5,0 3,0 4 2 - 10
11.12.2018 21:00:00 5,0 3,0 4 2 WNW 10
11.12.2018 20:00:00 5,0 3,0 2 1 - 10
11.12.2018 19:00:00 5,0 3,0 5 3 WNW 10
11.12.2018 18:00:00 6,0 3,0 5 3 WNW 10
11.12.2018 17:00:00 6,0 3,0 5 3 W 10
11.12.2018 16:00:00 7,0 3,0 4 2 WNW 10
11.12.2018 15:00:00 7,0 3,0 9 5 WNW 10
11.12.2018 14:00:00 7,0 3,0 9 5 WNW 10
11.12.2018 13:00:00 7,0 3,0 13 7 WNW 10
11.12.2018 12:00:00 6,0 3,0 9 5 W 10
11.12.2018 11:00:00 4,0 2,0 8 4 WNW 10
11.12.2018 10:00:00 4,0 2,0 11 6 W 10
11.12.2018 09:00:00 3,0 2,0 11 6 W 10
11.12.2018 08:00:00 3,0 2,0 11 6 W 10
11.12.2018 07:00:00 3,0 2,0 11 6 W 10
11.12.2018 06:00:00 3,0 2,0 9 5 W 10
11.12.2018 05:00:00 3,0 1,0 8 4 W 10
11.12.2018 04:00:00 - - - - - -
11.12.2018 03:00:00 - - - - - -
11.12.2018 02:00:00 - - - - - -
11.12.2018 01:00:00 - - - - - -
11.12.2018 00:00:00 3,0 2,0 11 6 W 10
10.12.2018 23:00:00 4,0 2,0 9 5 W 10
10.12.2018 22:00:00 4,0 2,0 13 7 W 10
10.12.2018 21:00:00 4,0 2,0 11 6 WNW 10
10.12.2018 20:00:00 4,0 1,0 15 8 W 10
10.12.2018 19:00:00 4,0 2,0 13 7 W 10
10.12.2018 18:00:00 5,0 2,0 11 6 WNW 10
10.12.2018 17:00:00 6,0 2,0 13 7 WNW 10
10.12.2018 16:00:00 6,0 2,0 15 8 WNW 10
10.12.2018 15:00:00 7,0 4,0 16 9 W 10
10.12.2018 14:00:00 6,0 4,0 15 8 W 10
10.12.2018 13:00:00 6,0 4,0 11 6 WNW 10
10.12.2018 12:00:00 5,0 4,0 18 10 W 10
10.12.2018 11:00:00 5,0 4,0 13 7 W 10
10.12.2018 10:00:00 4,0 3,0 16 9 WSW 10
10.12.2018 09:00:00 4,0 3,0 16 9 WSW 10
10.12.2018 08:00:00 4,0 3,0 13 7 W 10
10.12.2018 07:00:00 4,0 3,0 11 6 W 10
10.12.2018 06:00:00 4,0 3,0 15 8 W 10
10.12.2018 05:00:00 5,0 3,0 22 12 W 9
10.12.2018 04:00:00 - - - - - -
10.12.2018 03:00:00 - - - - - -
10.12.2018 02:00:00 - - - - - -
10.12.2018 01:00:00 - - - - - -
10.12.2018 00:00:00 6,0 4,0 16 9 W 10
09.12.2018 23:00:00 6,0 4,0 15 8 WNW 10
09.12.2018 22:00:00 6,0 4,0 15 8 W 10
09.12.2018 21:00:00 7,0 4,0 18 10 W 10
09.12.2018 20:00:00 7,0 5,0 18 10 W 10
09.12.2018 19:00:00 7,0 5,0 16 9 WNW 10
09.12.2018 18:00:00 8,0 6,0 22 12 W 9
09.12.2018 17:00:00 7,0 6,0 16 9 WNW 10
09.12.2018 16:00:00 9,0 6,0 18 10 WNW 10
09.12.2018 15:00:00 9,0 6,0 16 9 W 10
09.12.2018 14:00:00 9,0 7,0 16 9 WNW 10
09.12.2018 13:00:00 8,0 6,0 13 7 WNW 10
09.12.2018 12:00:00 8,0 6,0 18 10 WNW 7
09.12.2018 11:00:00 9,0 7,0 24 13 W 10
09.12.2018 10:00:00 9,0 7,0 29 16 WSW 10
09.12.2018 09:00:00 9,0 7,0 31 17 WSW 10
09.12.2018 08:00:00 9,0 6,0 39 21 W 10
09.12.2018 07:00:00 9,0 6,0 35 19 W 9
09.12.2018 06:00:00 8,0 7,0 35 19 W 6
09.12.2018 05:00:00 9,0 6,0 28 15 WSW 7
09.12.2018 04:00:00 - - - - - -
09.12.2018 03:00:00 - - - - - -
09.12.2018 02:00:00 - - - - - -
09.12.2018 01:00:00 - - - - - -
09.12.2018 00:00:00 11,0 7,0 35 19 W 10
08.12.2018 23:00:00 10,0 8,0 35 19 WSW 10
08.12.2018 22:00:00 9,0 8,0 22 12 SW 10
08.12.2018 21:00:00 9,0 9,0 28 15 SW 7
08.12.2018 20:00:00 9,0 8,0 26 14 SSW 7
08.12.2018 19:00:00 9,0 8,0 22 12 SSW 6
08.12.2018 18:00:00 10,0 6,0 28 15 SW 10
08.12.2018 17:00:00 10,0 5,0 26 14 WSW 10
08.12.2018 16:00:00 10,0 5,0 31 17 W 10
08.12.2018 15:00:00 10,0 5,0 37 20 W 10
08.12.2018 14:00:00 10,0 6,0 29 16 WSW 10
08.12.2018 13:00:00 9,0 7,0 24 13 WSW 10
08.12.2018 12:00:00 8,0 7,0 31 17 WSW 6
08.12.2018 11:00:00 8,0 6,0 34 18 WSW 10
08.12.2018 10:00:00 8,0 6,0 31 17 WSW 10
08.12.2018 09:00:00 7,0 6,0 26 14 SW 10
08.12.2018 08:00:00 7,0 6,0 26 14 SW 9
08.12.2018 07:00:00 8,0 5,0 24 13 SW 10
08.12.2018 06:00:00 7,0 5,0 26 14 SW 10
08.12.2018 05:00:00 7,0 5,0 28 15 SW 9
08.12.2018 04:00:00 - - - - - -
08.12.2018 03:00:00 - - - - - -
08.12.2018 02:00:00 - - - - - -
08.12.2018 01:00:00 - - - - - -
08.12.2018 00:00:00 6,0 4,0 22 12 SW 10
07.12.2018 23:00:00 7,0 5,0 22 12 SW 10
07.12.2018 22:00:00 7,0 5,0 26 14 WSW 10
07.12.2018 21:00:00 7,0 6,0 24 13 WSW 9
07.12.2018 20:00:00 7,0 5,0 18 10 W 10
07.12.2018 19:00:00 8,0 6,0 21 11 WNW 10
07.12.2018 18:00:00 10,0 9,0 26 14 SSW 8
07.12.2018 17:00:00 10,0 9,0 24 13 SSW 8
07.12.2018 16:00:00 11,0 9,0 24 13 SSW 9
07.12.2018 15:00:00 12,0 10,0 28 15 SSW 10
07.12.2018 14:00:00 12,0 10,0 28 15 SSW 10
07.12.2018 13:00:00 12,0 10,0 26 14 SSW 10
07.12.2018 12:00:00 12,0 10,0 24 13 SSW 10
07.12.2018 11:00:00 11,0 10,0 24 13 SSW 10
07.12.2018 10:00:00 11,0 10,0 26 14 SSW 10

tt = temperature
td = dewpoint
ff = wind speed
dd = wind direction
vv = visibility

Next stations